createdAt,value
2018-02-11T00:01:56.558Z,25.63
2018-02-11T00:04:24.830Z,26.90
2018-02-11T00:06:53.102Z,25.60
2018-02-11T00:09:21.352Z,28.80
2018-02-11T00:11:49.605Z,26.93
2018-02-11T00:14:17.874Z,29.37
2018-02-11T00:16:46.141Z,29.03
2018-02-11T00:19:14.393Z,27.40
2018-02-11T00:21:42.650Z,26.60
2018-02-11T00:24:10.902Z,24.93
2018-02-11T00:26:39.174Z,25.87
2018-02-11T00:29:07.434Z,26.60
2018-02-11T00:31:35.713Z,26.63
2018-02-11T00:34:03.668Z,26.27
2018-02-11T00:36:31.768Z,25.87
2018-02-11T00:39:00.049Z,23.70
2018-02-11T00:41:28.328Z,24.80
2018-02-11T00:43:56.597Z,26.40
2018-02-11T00:46:24.858Z,24.13
2018-02-11T00:48:53.120Z,24.17
2018-02-11T00:51:21.390Z,22.73
2018-02-11T00:53:49.646Z,22.27
2018-02-11T00:56:17.919Z,27.07
2018-02-11T00:58:46.298Z,25.20
2018-02-11T01:01:14.583Z,21.67
2018-02-11T01:03:42.873Z,23.70
2018-02-11T01:06:11.145Z,25.47
2018-02-11T01:08:39.466Z,22.90
2018-02-11T01:11:07.720Z,25.37
2018-02-11T01:13:35.981Z,22.90
2018-02-11T01:16:04.988Z,25.37
2018-02-11T01:18:33.244Z,22.80
2018-02-11T01:21:01.512Z,24.77
2018-02-11T01:23:29.774Z,23.40
2018-02-11T01:25:58.042Z,23.33
2018-02-11T01:28:26.038Z,23.30
2018-02-11T01:30:54.664Z,23.07
2018-02-11T01:33:23.697Z,23.30
2018-02-11T01:35:52.633Z,22.73
2018-02-11T01:38:20.917Z,24.67
2018-02-11T01:40:49.176Z,24.60
2018-02-11T01:43:17.618Z,25.50
2018-02-11T01:45:45.883Z,23.53
2018-02-11T01:48:14.150Z,25.83
2018-02-11T01:50:42.399Z,25.60
2018-02-11T01:53:10.657Z,27.60
2018-02-11T01:55:38.915Z,26.93
2018-02-11T01:58:07.182Z,23.90
2018-02-11T02:00:35.446Z,24.83
2018-02-11T02:03:03.704Z,23.40
2018-02-11T02:05:33.196Z,27.90
2018-02-11T02:08:02.230Z,27.00
2018-02-11T02:10:31.476Z,26.73
2018-02-11T02:12:59.773Z,26.93
2018-02-11T02:15:28.419Z,26.87
2018-02-11T02:17:56.673Z,25.03
2018-02-11T02:20:24.926Z,24.77
2018-02-11T02:22:53.188Z,25.33
2018-02-11T02:25:21.442Z,26.17
2018-02-11T02:27:49.705Z,25.80
2018-02-11T02:30:17.957Z,25.37
2018-02-11T02:32:46.234Z,26.23
2018-02-11T02:35:14.489Z,24.80
2018-02-11T02:37:42.765Z,25.93
2018-02-11T02:40:11.845Z,23.70
2018-02-11T02:42:40.116Z,26.53
2018-02-11T02:45:09.830Z,24.60
2018-02-11T02:47:38.125Z,26.07
2018-02-11T02:50:06.177Z,24.20
2018-02-11T02:52:34.426Z,26.90
2018-02-11T02:55:02.687Z,25.57
2018-02-11T02:57:30.958Z,27.13
2018-02-11T02:59:59.213Z,24.50
2018-02-11T03:02:27.472Z,26.80
2018-02-11T03:04:56.330Z,25.30
2018-02-11T03:07:24.589Z,25.03
2018-02-11T03:09:52.844Z,22.83
2018-02-11T03:12:21.117Z,22.27
2018-02-11T03:14:49.390Z,25.43
2018-02-11T03:17:17.662Z,24.40
2018-02-11T03:19:45.929Z,28.10
2018-02-11T03:22:14.181Z,25.40
2018-02-11T03:24:42.442Z,24.30
2018-02-11T03:27:11.792Z,25.57
2018-02-11T03:29:40.778Z,25.63
2018-02-11T03:32:09.062Z,25.97
2018-02-11T03:34:37.341Z,26.10
2018-02-11T03:37:05.606Z,26.30
2018-02-11T03:39:33.861Z,28.10
2018-02-11T03:42:02.165Z,26.63
2018-02-11T03:44:30.865Z,28.00
2018-02-11T03:46:59.117Z,23.77
2018-02-11T03:49:27.533Z,27.10
2018-02-11T03:51:57.237Z,26.00
2018-02-11T03:54:25.497Z,26.70
2018-02-11T03:56:54.490Z,26.60
2018-02-11T03:59:22.733Z,27.63
2018-02-11T04:01:51.776Z,25.57
2018-02-11T04:04:20.618Z,28.47
2018-02-11T04:06:48.873Z,26.27
2018-02-11T04:09:18.416Z,27.97
2018-02-11T04:11:46.677Z,28.10
2018-02-11T04:14:14.939Z,27.37
2018-02-11T04:16:43.193Z,24.80
2018-02-11T04:19:11.465Z,27.80
2018-02-11T04:21:39.744Z,26.80
2018-02-11T04:24:08.009Z,27.03
2018-02-11T04:26:36.276Z,27.37
2018-02-11T04:29:04.558Z,25.77
2018-02-11T04:31:32.833Z,23.90
2018-02-11T04:34:01.116Z,26.13
2018-02-11T04:36:29.375Z,24.00
2018-02-11T04:38:57.624Z,26.50
2018-02-11T04:41:25.879Z,26.20
2018-02-11T04:43:54.155Z,26.67
2018-02-11T04:46:23.040Z,26.60
2018-02-11T04:48:51.286Z,26.47
2018-02-11T04:51:19.552Z,27.70
2018-02-11T04:53:47.809Z,24.50
2018-02-11T04:56:16.081Z,24.93
2018-02-11T04:58:44.338Z,25.50
2018-02-11T05:01:12.617Z,26.30
2018-02-11T05:03:40.914Z,26.00
2018-02-11T05:06:09.181Z,26.70
2018-02-11T05:08:37.442Z,24.47
2018-02-11T05:11:05.736Z,23.70
2018-02-11T05:13:34.000Z,26.27
2018-02-11T05:16:02.094Z,25.07
2018-02-11T05:18:30.344Z,28.53
2018-02-11T05:20:59.462Z,26.40
2018-02-11T05:23:27.720Z,28.00
2018-02-11T05:25:56.276Z,29.55
2018-02-11T05:28:25.130Z,28.33
2018-02-11T05:30:53.386Z,26.90
2018-02-11T05:33:21.680Z,30.07
2018-02-11T05:35:49.973Z,28.20
2018-02-11T05:38:18.229Z,26.97
2018-02-11T05:40:46.505Z,28.87
2018-02-11T05:43:14.786Z,26.87
2018-02-11T05:45:43.055Z,29.57
2018-02-11T05:48:11.297Z,26.57
2018-02-11T05:50:39.563Z,27.10
2018-02-11T05:53:07.836Z,29.40
2018-02-11T05:55:36.098Z,29.53
2018-02-11T05:58:04.364Z,26.80
2018-02-11T06:00:32.645Z,32.37
2018-02-11T06:03:00.897Z,30.07
2018-02-11T06:05:29.156Z,30.40
2018-02-11T06:07:57.420Z,28.57
2018-02-11T06:10:25.678Z,28.10
2018-02-11T06:12:53.928Z,30.00
2018-02-11T06:15:22.205Z,29.63
2018-02-11T06:17:50.489Z,27.70
2018-02-11T06:20:18.789Z,28.33
2018-02-11T06:22:47.044Z,29.63
2018-02-11T06:25:15.308Z,29.80
2018-02-11T06:27:43.561Z,26.67
2018-02-11T06:30:12.673Z,27.60
2018-02-11T06:32:40.689Z,30.37
2018-02-11T06:35:08.945Z,29.13
2018-02-11T06:37:37.219Z,27.10
2018-02-11T06:40:08.641Z,28.70
2018-02-11T06:42:37.328Z,29.20
2018-02-11T06:45:06.175Z,29.07
2018-02-11T06:47:34.443Z,31.10
2018-02-11T06:50:02.705Z,28.10
2018-02-11T06:52:30.965Z,29.30
2018-02-11T06:54:59.237Z,28.50
2018-02-11T06:57:27.504Z,29.40
2018-02-11T06:59:55.483Z,30.13
2018-02-11T07:02:23.757Z,29.90
2018-02-11T07:04:51.825Z,29.10
2018-02-11T07:07:20.099Z,28.33
2018-02-11T07:09:48.392Z,31.43
2018-02-11T07:12:16.645Z,28.40
2018-02-11T07:14:44.915Z,30.23
2018-02-11T07:17:13.421Z,29.10
2018-02-11T07:19:41.746Z,27.80
2018-02-11T07:22:10.001Z,30.50
2018-02-11T07:24:38.288Z,29.00
2018-02-11T07:27:06.557Z,29.17
2018-02-11T07:29:34.818Z,27.93
2018-02-11T07:32:03.080Z,29.10
2018-02-11T07:34:31.341Z,27.27
2018-02-11T07:36:59.742Z,28.77
2018-02-11T07:39:28.010Z,27.27
2018-02-11T07:41:56.269Z,27.27
2018-02-11T07:44:24.545Z,30.10
2018-02-11T07:46:52.808Z,29.30
2018-02-11T07:49:21.072Z,30.80
2018-02-11T07:51:49.186Z,29.40
2018-02-11T07:54:17.462Z,24.60
2018-02-11T07:56:45.715Z,26.30
2018-02-11T07:59:13.818Z,24.87
2018-02-11T08:01:42.089Z,26.07
2018-02-11T08:04:10.349Z,24.60
2018-02-11T08:06:38.624Z,26.80
2018-02-11T08:09:06.889Z,26.10
2018-02-11T08:11:35.197Z,24.77
2018-02-11T08:14:03.621Z,27.50
2018-02-11T08:16:31.885Z,27.03
2018-02-11T08:19:00.217Z,24.47
2018-02-11T08:21:28.473Z,25.50
2018-02-11T08:23:56.738Z,26.13
2018-02-11T08:26:25.000Z,26.53
2018-02-11T08:28:53.261Z,26.17
2018-02-11T08:31:21.548Z,27.20
2018-02-11T08:33:49.814Z,25.17
2018-02-11T08:36:18.071Z,26.57
2018-02-11T08:38:46.984Z,26.50
2018-02-11T08:41:15.288Z,23.83
2018-02-11T08:43:44.309Z,24.27
2018-02-11T08:46:12.588Z,25.93
2018-02-11T08:48:40.848Z,27.10
2018-02-11T08:51:09.109Z,25.53
2018-02-11T08:53:37.364Z,26.73
2018-02-11T08:56:05.625Z,24.63
2018-02-11T08:58:33.977Z,25.57
2018-02-11T09:01:02.241Z,25.37
2018-02-11T09:03:30.533Z,24.97
2018-02-11T09:05:58.805Z,23.57
2018-02-11T09:08:27.085Z,26.40
2018-02-11T09:10:55.368Z,26.27
2018-02-11T09:13:23.630Z,23.60
2018-02-11T09:15:51.899Z,28.80
2018-02-11T09:18:20.166Z,29.37
2018-02-11T09:20:48.442Z,25.47
2018-02-11T09:23:16.707Z,27.40
2018-02-11T09:25:44.987Z,27.03
2018-02-11T09:28:13.236Z,28.00
2018-02-11T09:30:41.500Z,25.53
2018-02-11T09:33:09.866Z,27.90
2018-02-11T09:35:38.109Z,34.13
2018-02-11T09:38:06.377Z,30.10
2018-02-11T09:40:34.649Z,30.37
2018-02-11T09:43:02.915Z,31.50
2018-02-11T09:45:31.219Z,30.70
2018-02-11T09:47:59.485Z,31.53
2018-02-11T09:50:27.773Z,30.70
2018-02-11T09:52:56.165Z,30.73
2018-02-11T09:55:24.434Z,31.40
2018-02-11T09:57:52.716Z,30.27
2018-02-11T10:00:22.074Z,28.27
2018-02-11T10:02:51.046Z,32.10
2018-02-11T10:05:20.314Z,33.20
2018-02-11T10:07:48.586Z,32.00
2018-02-11T10:10:17.951Z,30.70
2018-02-11T10:12:46.661Z,30.70
2018-02-11T10:15:16.648Z,30.77
2018-02-11T10:17:44.906Z,28.67
2018-02-11T10:20:13.157Z,31.17
2018-02-11T10:22:41.413Z,31.10
2018-02-11T10:25:10.407Z,29.77
2018-02-11T10:27:39.405Z,31.00
2018-02-11T10:30:07.796Z,29.07
2018-02-11T10:32:36.049Z,29.60
2018-02-11T10:35:10.111Z,29.17
2018-02-11T10:37:38.062Z,28.40
2018-02-11T10:40:06.586Z,30.87
2018-02-11T10:42:35.437Z,27.90
2018-02-11T10:45:03.742Z,29.60
2018-02-11T10:47:32.039Z,28.23
2018-02-11T10:50:00.449Z,29.47
2018-02-11T10:52:28.737Z,28.20
2018-02-11T10:54:56.997Z,27.30
2018-02-11T10:57:25.271Z,26.33
2018-02-11T10:59:53.538Z,27.07
2018-02-11T11:02:21.805Z,26.70
2018-02-11T11:04:50.078Z,26.20
2018-02-11T11:07:18.337Z,28.93
2018-02-11T11:09:46.610Z,26.70
2018-02-11T11:12:14.873Z,24.87
2018-02-11T11:14:43.138Z,26.07
2018-02-11T11:17:11.394Z,26.50
2018-02-11T11:19:39.663Z,25.20
2018-02-11T11:22:07.919Z,23.77
2018-02-11T11:24:36.171Z,24.93
2018-02-11T11:27:04.448Z,26.47
2018-02-11T11:29:32.705Z,26.77
2018-02-11T11:32:00.962Z,24.87
2018-02-11T11:34:29.219Z,25.13
2018-02-11T11:36:57.499Z,26.60
2018-02-11T11:39:25.761Z,28.73
2018-02-11T11:41:54.021Z,25.40
2018-02-11T11:44:22.320Z,25.60
2018-02-11T11:46:50.629Z,26.67
2018-02-11T11:49:18.922Z,27.30
2018-02-11T11:51:47.250Z,25.43
2018-02-11T11:54:15.536Z,26.50
2018-02-11T11:56:43.822Z,25.10
2018-02-11T11:59:12.086Z,26.03
2018-02-11T12:01:40.346Z,26.67
2018-02-11T12:04:08.609Z,27.13
2018-02-11T12:06:36.860Z,23.57
2018-02-11T12:09:05.095Z,24.27
2018-02-11T12:11:34.120Z,27.30
2018-02-11T12:14:02.380Z,27.80
2018-02-11T12:16:30.649Z,24.97
2018-02-11T12:18:58.930Z,29.83
2018-02-11T12:21:27.184Z,30.57
2018-02-11T12:23:55.444Z,28.97
2018-02-11T12:26:23.720Z,25.93
2018-02-11T12:28:52.009Z,25.30
2018-02-11T12:31:20.345Z,26.20
2018-02-11T12:33:48.619Z,26.23
2018-02-11T12:36:16.897Z,24.30
2018-02-11T12:38:45.173Z,25.20
2018-02-11T12:41:13.456Z,27.10
2018-02-11T12:43:41.725Z,24.37
2018-02-11T12:46:09.992Z,25.10
2018-02-11T12:48:38.333Z,25.67
2018-02-11T12:51:06.601Z,25.27
2018-02-11T12:53:34.873Z,25.53
2018-02-11T12:56:03.576Z,24.77
2018-02-11T12:58:33.324Z,24.57
2018-02-11T13:01:01.850Z,22.20
2018-02-11T13:03:30.298Z,23.83
2018-02-11T13:05:58.578Z,22.67
2018-02-11T13:08:26.866Z,24.40
2018-02-11T13:10:55.110Z,24.30
2018-02-11T13:13:23.374Z,23.13
2018-02-11T13:15:51.633Z,23.93
2018-02-11T13:18:19.922Z,24.17
2018-02-11T13:20:48.202Z,23.97
2018-02-11T13:23:16.472Z,21.60
2018-02-11T13:25:44.970Z,22.87
2018-02-11T13:28:13.262Z,21.43
2018-02-11T13:30:41.526Z,22.33
2018-02-11T13:33:09.794Z,26.03
2018-02-11T13:35:38.072Z,22.40
2018-02-11T13:38:06.335Z,24.33
2018-02-11T13:40:34.737Z,23.30
2018-02-11T13:43:03.022Z,24.67
2018-02-11T13:45:31.505Z,23.40
2018-02-11T13:47:59.781Z,24.20
2018-02-11T13:50:28.037Z,22.10
2018-02-11T13:52:56.293Z,22.93
2018-02-11T13:55:24.561Z,23.47
2018-02-11T13:57:54.530Z,22.77
2018-02-11T14:00:23.546Z,21.60
2018-02-11T14:02:51.819Z,22.07
2018-02-11T14:05:21.232Z,21.63
2018-02-11T14:07:50.158Z,20.30
2018-02-11T14:10:20.070Z,22.23
2018-02-11T14:12:48.340Z,20.70
2018-02-11T14:15:16.613Z,23.20
2018-02-11T14:17:44.873Z,20.77
2018-02-11T14:20:13.749Z,19.00
2018-02-11T14:22:42.009Z,19.33
2018-02-11T14:25:13.013Z,19.63
2018-02-11T14:27:41.265Z,20.07
2018-02-11T14:30:11.325Z,21.33
2018-02-11T14:32:39.585Z,21.77
2018-02-11T14:35:07.842Z,19.80
2018-02-11T14:37:36.115Z,21.80
2018-02-11T14:40:13.850Z,16.70
2018-02-11T14:42:42.105Z,15.73
2018-02-11T14:45:11.297Z,17.43
2018-02-11T14:47:39.904Z,16.37
2018-02-11T14:50:15.594Z,18.30
2018-02-11T14:52:43.897Z,18.50
2018-02-11T14:55:17.524Z,19.23
2018-02-11T14:57:45.916Z,18.90
2018-02-11T15:00:14.180Z,19.53
2018-02-11T15:02:42.430Z,20.03
2018-02-11T15:05:10.691Z,20.20
2018-02-11T15:07:38.966Z,20.73
2018-02-11T15:10:11.445Z,19.57
2018-02-11T15:12:39.693Z,19.43
2018-02-11T15:15:11.524Z,20.17
2018-02-11T15:17:40.310Z,19.60
2018-02-11T15:20:12.299Z,22.10
2018-02-11T15:22:42.841Z,19.07
2018-02-11T15:25:14.912Z,19.17
2018-02-11T15:27:43.338Z,19.70
2018-02-11T15:30:12.477Z,17.90
2018-02-11T15:32:40.731Z,17.27
2018-02-11T15:35:12.983Z,18.23
2018-02-11T15:37:41.837Z,17.40
2018-02-11T15:40:11.980Z,17.33
2018-02-11T15:42:40.409Z,20.40
2018-02-11T15:45:12.421Z,18.97
2018-02-11T15:47:41.343Z,19.33
2018-02-11T15:50:15.424Z,20.10
2018-02-11T15:52:43.705Z,18.93
2018-02-11T15:55:17.855Z,17.73
2018-02-11T15:57:46.105Z,18.93
2018-02-11T16:00:14.391Z,17.90
2018-02-11T16:02:42.655Z,18.40
2018-02-11T16:05:10.930Z,17.90
2018-02-11T16:07:39.208Z,17.33
2018-02-11T16:10:11.822Z,18.67
2018-02-11T16:12:40.322Z,18.03
2018-02-11T16:15:14.398Z,18.50
2018-02-11T16:17:42.657Z,20.90
2018-02-11T16:20:11.166Z,20.67
2018-02-11T16:22:39.685Z,21.83
2018-02-11T16:25:10.630Z,19.37
2018-02-11T16:27:39.644Z,19.43
2018-02-11T16:30:10.025Z,19.37
2018-02-11T16:32:42.289Z,21.60
2018-02-11T16:35:15.622Z,21.33
2018-02-11T16:37:43.883Z,18.70
2018-02-11T16:40:14.274Z,22.20
2018-02-11T16:42:43.009Z,20.63
2018-02-11T16:45:12.224Z,17.80
2018-02-11T16:47:40.491Z,19.73
2018-02-11T16:50:15.076Z,19.30
2018-02-11T16:52:43.341Z,19.37
2018-02-11T16:55:11.685Z,19.50
2018-02-11T16:57:40.020Z,17.73
2018-02-11T17:00:09.661Z,21.00
2018-02-11T17:02:37.913Z,19.37
2018-02-11T17:05:08.273Z,19.97
2018-02-11T17:07:36.555Z,18.80
2018-02-11T17:10:07.884Z,20.57
2018-02-11T17:12:36.175Z,19.73
2018-02-11T17:15:07.124Z,19.07
2018-02-11T17:17:35.446Z,18.93
2018-02-11T17:20:03.819Z,18.63
2018-02-11T17:22:33.789Z,20.53
2018-02-11T17:25:02.050Z,18.33
2018-02-11T17:27:30.400Z,20.37
2018-02-11T17:29:59.330Z,18.67
2018-02-11T17:32:27.410Z,19.97
2018-02-11T17:34:55.683Z,19.60
2018-02-11T17:37:23.978Z,19.30
2018-02-11T17:39:52.246Z,20.73
2018-02-11T17:42:20.549Z,19.70
2018-02-11T17:44:49.122Z,19.27
2018-02-11T17:47:17.393Z,18.27
2018-02-11T17:49:46.365Z,17.67
2018-02-11T17:52:17.173Z,19.83
2018-02-11T17:54:47.756Z,21.60
2018-02-11T17:57:16.013Z,21.10
2018-02-11T17:59:44.293Z,21.67
2018-02-11T18:02:13.101Z,22.80
2018-02-11T18:04:41.373Z,21.40
2018-02-11T18:07:09.904Z,21.93
2018-02-11T18:09:38.937Z,21.07
2018-02-11T18:12:07.266Z,20.60
2018-02-11T18:14:35.773Z,20.60
2018-02-11T18:17:04.082Z,22.03
2018-02-11T18:19:32.883Z,20.90
2018-02-11T18:22:01.210Z,21.10
2018-02-11T18:24:29.530Z,20.70
2018-02-11T18:26:57.826Z,20.90
2018-02-11T18:29:26.141Z,22.83
2018-02-11T18:31:54.412Z,22.03
2018-02-11T18:34:22.693Z,20.97
2018-02-11T18:36:50.965Z,20.00
2018-02-11T18:42:34.445Z,23.33
2018-02-11T18:45:02.779Z,22.67
2018-02-11T18:47:31.057Z,21.40
2018-02-11T18:49:59.313Z,23.03
2018-02-11T18:52:33.765Z,25.33
2018-02-11T18:55:02.085Z,25.37
2018-02-11T18:57:30.349Z,23.80
2018-02-11T18:59:58.673Z,22.67
2018-02-11T19:02:26.934Z,22.10
2018-02-11T19:04:55.219Z,22.50
2018-02-11T19:07:23.498Z,21.83
2018-02-11T19:09:51.763Z,25.90
2018-02-11T19:12:20.041Z,28.63
2018-02-11T19:14:48.305Z,24.47
2018-02-11T19:17:16.565Z,23.90
2018-02-11T19:20:13.529Z,24.97
2018-02-11T19:22:42.531Z,23.90
2018-02-11T19:25:10.822Z,26.03
2018-02-11T19:27:39.319Z,26.87
2018-02-11T19:30:10.210Z,24.33
2018-02-11T19:32:38.469Z,21.07
2018-02-11T19:35:09.349Z,19.80
2018-02-11T19:37:37.609Z,20.23
2018-02-11T19:40:08.272Z,17.13
2018-02-11T19:42:36.564Z,20.13
2018-02-11T19:45:04.845Z,18.90
2018-02-11T19:47:33.106Z,20.67
2018-02-11T19:50:01.398Z,19.03
2018-02-11T19:52:29.672Z,18.33
2018-02-11T19:54:57.925Z,19.30
2018-02-11T19:57:26.212Z,20.90
2018-02-11T19:59:55.516Z,18.07
2018-02-11T20:02:23.806Z,23.60
2018-02-11T20:04:52.080Z,19.10
2018-02-11T20:07:20.351Z,22.17
2018-02-11T20:09:48.686Z,22.00
2018-02-11T20:12:16.946Z,20.43
2018-02-11T20:14:46.192Z,21.70
2018-02-11T20:17:18.700Z,22.10
2018-02-11T20:19:53.040Z,20.70
2018-02-11T20:22:23.268Z,21.33
2018-02-11T20:24:52.305Z,21.90
2018-02-11T20:27:29.674Z,21.40
2018-02-11T20:29:58.123Z,22.20
2018-02-11T20:32:26.985Z,21.40
2018-02-11T20:34:55.243Z,20.77
2018-02-11T20:37:24.354Z,21.07
2018-02-11T20:39:57.989Z,25.63
2018-02-11T20:42:29.542Z,21.50
2018-02-11T20:44:57.832Z,28.07
2018-02-11T20:47:27.754Z,31.53
2018-02-11T20:49:56.012Z,22.03
2018-02-11T20:52:24.283Z,24.83
2018-02-11T20:54:52.769Z,22.30
2018-02-11T20:57:21.016Z,23.00
2018-02-11T20:59:49.274Z,22.80
2018-02-11T21:02:17.662Z,26.20
2018-02-11T21:04:45.920Z,30.20
2018-02-11T21:07:14.191Z,24.60
2018-02-11T21:09:42.467Z,22.43
2018-02-11T21:12:11.442Z,21.27
2018-02-11T21:14:39.735Z,21.63
2018-02-11T21:17:08.013Z,20.13
2018-02-11T21:19:36.273Z,22.30
2018-02-11T21:22:05.478Z,20.73
2018-02-11T21:24:33.741Z,20.60
2018-02-11T21:27:02.041Z,21.03
2018-02-11T21:29:30.305Z,19.40
2018-02-11T21:31:58.554Z,19.90
2018-02-11T21:34:27.112Z,21.80
2018-02-11T21:36:55.378Z,21.70
2018-02-11T21:39:23.817Z,20.80
2018-02-11T21:41:52.086Z,21.20
2018-02-11T21:44:21.662Z,20.20
2018-02-11T21:46:49.948Z,18.83
2018-02-11T21:49:18.835Z,21.63
2018-02-11T21:51:47.869Z,21.30
2018-02-11T21:54:16.959Z,21.60
2018-02-11T21:56:45.240Z,20.70
2018-02-11T21:59:13.503Z,19.30
2018-02-11T22:01:41.787Z,21.67
2018-02-11T22:04:10.071Z,21.33
2018-02-11T22:06:38.029Z,22.63
2018-02-11T22:09:06.642Z,24.30
2018-02-11T22:11:34.910Z,23.27
2018-02-11T22:14:03.373Z,22.57
2018-02-11T22:16:31.624Z,22.80
2018-02-11T22:18:59.872Z,23.13
2018-02-11T22:21:28.464Z,22.70
2018-02-11T22:23:57.164Z,23.90
2018-02-11T22:26:25.556Z,22.47
2018-02-11T22:28:55.667Z,22.77
2018-02-11T22:31:24.853Z,24.03
2018-02-11T22:33:53.120Z,20.20
2018-02-11T22:36:21.799Z,19.73
2018-02-11T22:38:51.033Z,22.13
2018-02-11T22:41:19.925Z,21.60
2018-02-11T22:43:48.184Z,18.77
2018-02-11T22:46:16.449Z,20.10
2018-02-11T22:48:45.008Z,16.00
2018-02-11T22:51:13.891Z,19.63
2018-02-11T22:53:42.147Z,19.17
2018-02-11T22:56:10.558Z,22.17
2018-02-11T22:58:39.797Z,22.70
2018-02-11T23:01:08.057Z,19.90
2018-02-11T23:03:36.912Z,22.83
2018-02-11T23:06:05.513Z,23.47
2018-02-11T23:08:33.771Z,21.00
2018-02-11T23:11:02.021Z,21.37
2018-02-11T23:13:30.270Z,18.67
2018-02-11T23:15:59.279Z,15.37
2018-02-11T23:18:28.321Z,21.50
2018-02-11T23:20:56.622Z,19.67
2018-02-11T23:23:25.721Z,18.87
2018-02-11T23:25:54.201Z,12.07
2018-02-11T23:28:23.368Z,13.83
2018-02-11T23:30:51.618Z,10.47
2018-02-11T23:33:19.890Z,10.93
2018-02-11T23:35:48.332Z,10.60
2018-02-11T23:38:16.583Z,13.60
2018-02-11T23:40:44.822Z,11.27
2018-02-11T23:43:13.982Z,13.30
2018-02-11T23:45:43.177Z,12.07
2018-02-11T23:48:11.426Z,10.27
2018-02-11T23:50:39.670Z,8.77
2018-02-11T23:53:07.930Z,10.30
2018-02-11T23:55:36.186Z,9.63
2018-02-11T23:58:05.116Z,10.90
